createdAt,value
2023-04-10T00:00:06.373Z,10.62
2023-04-10T00:02:33.903Z,10.61
2023-04-10T00:05:01.253Z,10.56
2023-04-10T00:07:28.025Z,10.53
2023-04-10T00:09:54.993Z,10.52
2023-04-10T00:12:21.897Z,10.48
2023-04-10T00:14:48.772Z,10.46
2023-04-10T00:17:15.579Z,10.44
2023-04-10T00:19:42.337Z,10.40
2023-04-10T00:22:09.101Z,10.38
2023-04-10T00:24:35.960Z,10.35
2023-04-10T00:27:02.731Z,10.33
2023-04-10T00:29:29.646Z,10.30
2023-04-10T00:31:56.477Z,10.27
2023-04-10T00:34:23.905Z,10.25
2023-04-10T00:36:51.033Z,10.24
2023-04-10T00:39:17.838Z,10.21
2023-04-10T00:41:44.677Z,10.19
2023-04-10T00:44:11.908Z,10.17
2023-04-10T00:46:39.897Z,10.15
2023-04-10T00:49:06.889Z,10.13
2023-04-10T00:51:33.992Z,10.09
2023-04-10T00:54:02.456Z,10.10
2023-04-10T00:56:32.206Z,10.08
2023-04-10T00:58:59.076Z,10.06
2023-04-10T01:01:26.034Z,10.05
2023-04-10T01:03:54.307Z,10.03
2023-04-10T01:06:59.113Z,10.01
2023-04-10T01:10:02.136Z,9.97
2023-04-10T01:12:41.928Z,9.95
2023-04-10T01:15:22.578Z,9.93
2023-04-10T01:18:24.488Z,9.88
2023-04-10T01:20:51.269Z,9.86
2023-04-10T01:23:55.077Z,9.83
2023-04-10T01:27:01.541Z,9.79
2023-04-10T01:29:30.823Z,9.76
2023-04-10T01:32:04.010Z,9.75
2023-04-10T01:34:54.734Z,9.72
2023-04-10T01:37:34.608Z,9.70
2023-04-10T01:40:06.983Z,9.66
2023-04-10T01:42:42.663Z,9.65
2023-04-10T01:45:17.417Z,9.62
2023-04-10T01:47:44.470Z,9.59
2023-04-10T01:50:12.234Z,9.58
2023-04-10T01:52:40.162Z,9.56
2023-04-10T01:55:08.885Z,9.53
2023-04-10T01:57:38.720Z,9.51
2023-04-10T02:00:07.402Z,9.49
2023-04-10T02:02:34.954Z,9.48
2023-04-10T02:05:02.002Z,9.46
2023-04-10T02:07:38.420Z,9.44
2023-04-10T02:10:19.792Z,9.41
2023-04-10T02:13:00.037Z,9.38
2023-04-10T02:15:30.442Z,9.36
2023-04-10T02:17:59.936Z,9.32
2023-04-10T02:20:27.133Z,9.30
2023-04-10T02:22:54.237Z,9.29
2023-04-10T02:25:21.074Z,9.24
2023-04-10T02:27:47.872Z,9.23
2023-04-10T02:30:14.698Z,9.20
2023-04-10T02:32:41.963Z,9.19
2023-04-10T02:35:09.061Z,9.17
2023-04-10T02:37:37.007Z,9.15
2023-04-10T02:40:04.109Z,9.13
2023-04-10T02:42:30.927Z,9.12
2023-04-10T02:44:57.714Z,9.09
2023-04-10T02:47:24.593Z,9.07
2023-04-10T02:49:51.419Z,9.07
2023-04-10T02:52:18.742Z,9.04
2023-04-10T02:54:46.256Z,9.02
2023-04-10T02:57:13.018Z,9.01
2023-04-10T02:59:39.943Z,8.99
2023-04-10T03:02:07.396Z,8.97
2023-04-10T03:04:34.734Z,8.95
2023-04-10T03:07:01.719Z,8.94
2023-04-10T03:09:28.548Z,8.93
2023-04-10T03:11:55.318Z,8.91
2023-04-10T03:14:22.093Z,8.90
2023-04-10T03:16:48.948Z,8.86
2023-04-10T03:19:16.214Z,8.85
2023-04-10T03:21:43.010Z,8.84
2023-04-10T03:24:09.762Z,8.82
2023-04-10T03:26:36.532Z,8.82
2023-04-10T03:29:03.636Z,8.80
2023-04-10T03:31:30.954Z,8.79
2023-04-10T03:33:58.228Z,8.77
2023-04-10T03:36:25.314Z,8.75
2023-04-10T03:38:52.778Z,8.73
2023-04-10T03:41:19.599Z,8.71
2023-04-10T03:43:46.390Z,8.68
2023-04-10T03:46:13.147Z,8.66
2023-04-10T03:48:41.122Z,8.64
2023-04-10T03:51:08.069Z,8.61
2023-04-10T03:53:36.196Z,8.60
2023-04-10T03:56:03.717Z,8.57
2023-04-10T03:58:30.476Z,8.54
2023-04-10T04:00:57.407Z,8.52
2023-04-10T04:03:24.379Z,8.50
2023-04-10T04:05:52.192Z,8.48
2023-04-10T04:08:19.028Z,8.45
2023-04-10T04:10:45.795Z,8.43
2023-04-10T04:13:12.598Z,8.41
2023-04-10T04:15:39.505Z,8.40
2023-04-10T04:18:06.511Z,8.37
2023-04-10T04:20:33.399Z,8.35
2023-04-10T04:23:00.217Z,8.31
2023-04-10T04:25:27.139Z,8.30
2023-04-10T04:27:53.906Z,8.29
2023-04-10T04:30:20.827Z,8.28
2023-04-10T04:32:47.610Z,8.26
2023-04-10T04:35:14.393Z,8.26
2023-04-10T04:37:41.164Z,8.25
2023-04-10T04:40:08.423Z,8.25
2023-04-10T04:42:35.766Z,8.27
2023-04-10T04:45:02.575Z,8.26
2023-04-10T04:47:29.373Z,8.28
2023-04-10T04:49:56.188Z,8.30
2023-04-10T04:52:23.669Z,8.32
2023-04-10T04:54:50.502Z,8.36
2023-04-10T04:57:17.304Z,8.41
2023-04-10T04:59:44.089Z,8.44
2023-04-10T05:02:10.909Z,8.47
2023-04-10T05:04:37.767Z,8.52
2023-04-10T05:07:04.545Z,8.58
2023-04-10T05:09:31.322Z,8.63
2023-04-10T05:16:24.040Z,8.87
2023-04-10T05:18:51.037Z,9.02
2023-04-10T05:21:17.812Z,9.22
2023-04-10T05:23:44.563Z,9.40
2023-04-10T05:26:11.331Z,9.57
2023-04-10T05:28:38.069Z,9.73
2023-04-10T05:31:05.198Z,9.89
2023-04-10T05:33:32.029Z,10.04
2023-04-10T05:35:58.806Z,10.16
2023-04-10T05:38:25.632Z,10.30
2023-04-10T05:40:52.422Z,10.51
2023-04-10T05:43:19.162Z,10.74
2023-04-10T05:45:45.931Z,10.96
2023-04-10T05:48:12.707Z,11.23
2023-04-10T05:50:39.504Z,11.52
2023-04-10T05:53:06.305Z,11.88
2023-04-10T05:55:33.052Z,12.26
2023-04-10T05:57:59.854Z,12.64
2023-04-10T06:00:27.366Z,13.04
2023-04-10T06:02:54.242Z,13.53
2023-04-10T06:05:21.542Z,14.00
2023-04-10T06:07:48.399Z,14.42
2023-04-10T06:10:15.480Z,14.76
2023-04-10T06:12:42.270Z,15.06
2023-04-10T06:15:09.416Z,15.28
2023-04-10T06:17:43.574Z,15.39
2023-04-10T06:20:10.834Z,15.37
2023-04-10T06:22:37.638Z,15.34
2023-04-10T06:25:05.364Z,15.32
2023-04-10T06:27:34.487Z,15.30
2023-04-10T06:30:01.554Z,15.27
2023-04-10T06:32:28.322Z,15.27
2023-04-10T06:34:55.818Z,15.32
2023-04-10T06:37:31.152Z,15.40
2023-04-10T06:40:07.321Z,15.53
2023-04-10T06:42:34.464Z,15.61
2023-04-10T06:45:01.476Z,15.72
2023-04-10T06:47:28.813Z,15.83
2023-04-10T06:49:55.902Z,15.94
2023-04-10T06:52:22.719Z,16.09
2023-04-10T06:54:49.515Z,16.22
2023-04-10T06:57:16.905Z,16.26
2023-04-10T06:59:43.685Z,16.22
2023-04-10T07:02:10.499Z,16.23
2023-04-10T07:04:37.528Z,16.27
2023-04-10T07:07:05.268Z,16.37
2023-04-10T07:09:32.075Z,16.55
2023-04-10T07:11:58.900Z,16.79
2023-04-10T07:14:25.743Z,17.06
2023-04-10T07:16:53.951Z,17.36
2023-04-10T07:19:21.079Z,17.60
2023-04-10T07:21:50.448Z,17.70
2023-04-10T07:24:18.069Z,17.75
2023-04-10T07:26:46.118Z,17.83
2023-04-10T07:29:13.995Z,17.95
2023-04-10T07:31:40.843Z,18.09
2023-04-10T07:34:08.041Z,18.36
2023-04-10T07:36:34.934Z,18.63
2023-04-10T07:39:01.722Z,18.92
2023-04-10T07:41:28.503Z,19.15
2023-04-10T07:43:55.429Z,19.31
2023-04-10T07:46:22.379Z,19.53
2023-04-10T07:48:49.733Z,19.73
2023-04-10T07:51:16.543Z,19.96
2023-04-10T07:53:43.424Z,20.14
2023-04-10T07:56:19.321Z,20.33
2023-04-10T07:58:46.641Z,20.54
2023-04-10T08:01:14.419Z,20.74
2023-04-10T08:03:43.622Z,20.81
2023-04-10T08:06:11.740Z,20.80
2023-04-10T08:08:40.664Z,20.83
2023-04-10T08:11:29.712Z,20.78
2023-04-10T08:14:01.676Z,20.66
2023-04-10T08:16:34.559Z,20.48
2023-04-10T08:19:02.219Z,20.36
2023-04-10T08:21:31.542Z,20.24
2023-04-10T08:24:02.148Z,20.15
2023-04-10T08:26:29.424Z,20.08
2023-04-10T08:28:59.685Z,20.01
2023-04-10T08:31:28.681Z,19.95
2023-04-10T08:33:56.558Z,19.92
2023-04-10T08:36:23.696Z,19.89
2023-04-10T08:38:50.571Z,19.87
2023-04-10T08:41:19.728Z,19.87
2023-04-10T08:43:47.190Z,19.87
2023-04-10T08:46:14.990Z,19.87
2023-04-10T08:48:47.583Z,19.85
2023-04-10T08:51:20.483Z,19.83
2023-04-10T08:53:58.431Z,19.80
2023-04-10T08:56:26.048Z,19.81
2023-04-10T08:58:53.205Z,19.82
2023-04-10T09:01:21.767Z,19.82
2023-04-10T09:03:49.096Z,19.78
2023-04-10T09:06:16.113Z,19.75
2023-04-10T09:08:42.889Z,19.76
2023-04-10T09:11:10.782Z,19.75
2023-04-10T09:13:42.596Z,19.76
2023-04-10T09:16:11.202Z,19.77
2023-04-10T09:18:46.095Z,19.76
2023-04-10T09:21:17.119Z,19.75
2023-04-10T09:23:45.798Z,19.75
2023-04-10T09:26:32.364Z,19.77
2023-04-10T09:29:05.241Z,19.78
2023-04-10T09:31:40.164Z,19.80
2023-04-10T09:34:16.443Z,19.82
2023-04-10T09:36:58.499Z,19.83
2023-04-10T09:39:40.940Z,19.85
2023-04-10T09:42:07.740Z,19.87
2023-04-10T09:44:37.572Z,19.92
2023-04-10T09:47:18.958Z,19.96
2023-04-10T09:50:00.739Z,20.00
2023-04-10T09:52:33.666Z,20.01
2023-04-10T09:55:07.581Z,20.02
2023-04-10T09:57:35.718Z,20.05
2023-04-10T10:00:06.874Z,20.09
2023-04-10T10:02:39.768Z,20.15
2023-04-10T10:05:07.450Z,20.18
2023-04-10T10:07:34.994Z,20.23
2023-04-10T10:10:03.391Z,20.25
2023-04-10T10:12:54.959Z,20.28
2023-04-10T10:15:23.156Z,20.30
2023-04-10T10:18:21.372Z,20.36
2023-04-10T10:20:50.671Z,20.40
2023-04-10T10:23:19.507Z,20.43
2023-04-10T10:25:46.750Z,20.46
2023-04-10T10:28:14.773Z,20.52
2023-04-10T10:30:43.029Z,20.55
2023-04-10T10:33:13.350Z,20.63
2023-04-10T10:35:41.201Z,20.67
2023-04-10T10:38:08.519Z,20.70
2023-04-10T10:41:14.396Z,20.72
2023-04-10T10:44:08.395Z,20.72
2023-04-10T10:46:42.684Z,20.70
2023-04-10T10:49:09.415Z,20.71
2023-04-10T10:51:50.868Z,20.74
2023-04-10T10:54:35.405Z,20.77
2023-04-10T10:57:06.397Z,20.79
2023-04-10T10:59:48.419Z,20.84
2023-04-10T11:02:19.937Z,20.86
2023-04-10T11:04:49.795Z,20.86
2023-04-10T11:07:17.268Z,20.89
2023-04-10T11:09:50.955Z,20.91
2023-04-10T11:12:24.315Z,20.92
2023-04-10T11:15:04.495Z,20.99
2023-04-10T11:17:54.267Z,21.06
2023-04-10T11:20:25.676Z,21.08
2023-04-10T11:23:10.495Z,21.13
2023-04-10T11:26:07.223Z,21.19
2023-04-10T11:28:37.347Z,21.24
2023-04-10T11:31:23.086Z,21.33
2023-04-10T11:33:56.472Z,21.42
2023-04-10T11:36:23.932Z,21.48
2023-04-10T11:39:02.724Z,21.55
2023-04-10T11:41:34.981Z,21.61
2023-04-10T11:44:06.268Z,21.67
2023-04-10T11:46:37.942Z,21.74
2023-04-10T11:49:06.603Z,21.79
2023-04-10T11:51:34.041Z,21.82
2023-04-10T11:54:12.321Z,21.86
2023-04-10T11:56:41.734Z,21.90
2023-04-10T11:59:19.498Z,21.94
2023-04-10T12:01:47.293Z,21.99
2023-04-10T12:04:18.362Z,22.05
2023-04-10T12:06:51.457Z,22.06
2023-04-10T12:09:20.626Z,22.10
2023-04-10T12:11:56.737Z,22.18
2023-04-10T12:14:28.988Z,22.22
2023-04-10T12:16:56.884Z,22.27
2023-04-10T12:19:23.782Z,22.30
2023-04-10T12:21:51.056Z,22.35
2023-04-10T12:24:44.923Z,22.44
2023-04-10T12:27:22.488Z,22.50
2023-04-10T12:29:53.146Z,22.57
2023-04-10T12:32:20.696Z,22.65
2023-04-10T12:34:58.417Z,22.76
2023-04-10T12:37:26.592Z,22.85
2023-04-10T12:39:53.799Z,22.91
2023-04-10T12:42:22.931Z,23.00
2023-04-10T12:45:01.058Z,23.08
2023-04-10T12:47:29.555Z,23.11
2023-04-10T12:50:11.725Z,23.16
2023-04-10T12:52:42.376Z,23.20
2023-04-10T12:55:11.196Z,23.24
2023-04-10T12:57:38.167Z,23.26
2023-04-10T13:00:07.221Z,23.28
2023-04-10T13:02:34.241Z,23.28
2023-04-10T13:05:01.812Z,23.28
2023-04-10T13:07:28.635Z,23.30
2023-04-10T13:09:55.395Z,23.35
2023-04-10T13:12:22.992Z,23.38
2023-04-10T13:14:49.781Z,23.40
2023-04-10T13:17:16.569Z,23.41
2023-04-10T13:19:43.339Z,23.44
2023-04-10T13:22:10.091Z,23.44
2023-04-10T13:24:37.007Z,23.48
2023-04-10T13:27:03.957Z,23.52
2023-04-10T13:29:30.753Z,23.53
2023-04-10T13:31:57.886Z,23.51
2023-04-10T13:34:24.683Z,23.50
2023-04-10T13:36:51.463Z,23.48
2023-04-10T13:39:18.645Z,23.46
2023-04-10T13:41:45.498Z,23.44
2023-04-10T13:44:12.322Z,23.45
2023-04-10T13:46:39.149Z,23.46
2023-04-10T13:49:06.003Z,23.49
2023-04-10T13:51:32.786Z,23.56
2023-04-10T13:53:59.553Z,23.64
2023-04-10T13:56:26.406Z,23.69
2023-04-10T13:58:53.393Z,23.74
2023-04-10T14:01:20.488Z,23.79
2023-04-10T14:03:47.485Z,23.80
2023-04-10T14:06:14.349Z,23.82
2023-04-10T14:08:41.203Z,23.82
2023-04-10T14:11:08.005Z,23.82
2023-04-10T14:13:34.759Z,23.82
2023-04-10T14:16:01.707Z,23.84
2023-04-10T14:23:52.472Z,23.81
2023-04-10T14:26:19.258Z,23.81
2023-04-10T14:28:46.042Z,23.79
2023-04-10T14:31:12.845Z,23.79
2023-04-10T14:33:39.643Z,23.80
2023-04-10T14:36:07.100Z,23.82
2023-04-10T14:38:33.909Z,23.83
2023-04-10T14:41:00.836Z,23.81
2023-04-10T14:43:27.626Z,23.78
2023-04-10T14:45:54.400Z,23.76
2023-04-10T14:48:21.347Z,23.75
2023-04-10T14:50:49.337Z,23.73
2023-04-10T14:53:16.702Z,23.70
2023-04-10T14:55:43.502Z,23.64
2023-04-10T14:58:11.182Z,23.59
2023-04-10T15:00:38.004Z,23.50
2023-04-10T15:03:06.102Z,23.42
2023-04-10T15:05:33.115Z,23.36
2023-04-10T15:07:59.939Z,23.29
2023-04-10T15:10:29.094Z,23.26
2023-04-10T15:12:55.917Z,23.23
2023-04-10T15:15:22.676Z,23.20
2023-04-10T15:17:49.569Z,23.18
2023-04-10T15:20:16.504Z,23.18
2023-04-10T15:22:44.900Z,23.16
2023-04-10T15:25:15.057Z,23.14
2023-04-10T15:27:41.921Z,23.11
2023-04-10T15:30:09.105Z,23.07
2023-04-10T15:32:38.212Z,23.06
2023-04-10T15:35:05.933Z,23.03
2023-04-10T15:37:35.307Z,23.00
2023-04-10T15:40:06.317Z,22.97
2023-04-10T15:42:35.286Z,22.97
2023-04-10T15:45:03.113Z,22.99
2023-04-10T15:47:30.676Z,23.04
2023-04-10T15:49:57.676Z,23.10
2023-04-10T15:52:24.467Z,23.16
2023-04-10T15:54:51.292Z,23.21
2023-04-10T15:57:18.090Z,23.21
2023-04-10T15:59:44.863Z,23.18
2023-04-10T16:02:11.755Z,23.16
2023-04-10T16:04:38.761Z,23.15
2023-04-10T16:07:05.563Z,23.12
2023-04-10T16:09:32.308Z,23.09
2023-04-10T16:11:59.088Z,23.03
2023-04-10T16:14:25.888Z,22.95
2023-04-10T16:16:52.687Z,22.87
2023-04-10T16:19:19.479Z,22.81
2023-04-10T16:21:46.353Z,22.73
2023-04-10T16:24:13.224Z,22.64
2023-04-10T16:26:40.099Z,22.57
2023-04-10T16:29:06.838Z,22.49
2023-04-10T16:31:33.729Z,22.42
2023-04-10T16:34:01.260Z,22.36
2023-04-10T16:36:28.017Z,22.30
2023-04-10T16:38:54.938Z,22.24
2023-04-10T16:41:22.701Z,22.17
2023-04-10T16:43:49.502Z,22.12
2023-04-10T16:46:16.314Z,22.05
2023-04-10T16:48:43.076Z,22.01
2023-04-10T16:51:16.499Z,21.95
2023-04-10T16:53:43.344Z,21.88
2023-04-10T16:56:10.571Z,21.85
2023-04-10T16:58:38.025Z,21.80
2023-04-10T17:01:19.284Z,21.78
2023-04-10T17:03:48.103Z,21.74
2023-04-10T17:06:15.855Z,21.70
2023-04-10T17:08:42.930Z,21.67
2023-04-10T17:11:10.239Z,21.64
2023-04-10T17:13:37.153Z,21.60
2023-04-10T17:16:05.441Z,21.56
2023-04-10T17:18:32.685Z,21.53
2023-04-10T17:20:59.694Z,21.51
2023-04-10T17:23:26.550Z,21.47
2023-04-10T17:25:53.352Z,21.43
2023-04-10T17:28:20.407Z,21.38
2023-04-10T17:30:48.357Z,21.32
2023-04-10T17:33:15.348Z,21.26
2023-04-10T17:35:42.506Z,21.22
2023-04-10T17:38:09.465Z,21.16
2023-04-10T17:40:37.450Z,21.11
2023-04-10T17:43:04.482Z,21.06
2023-04-10T17:45:31.268Z,21.02
2023-04-10T17:47:58.150Z,20.95
2023-04-10T17:50:25.881Z,20.90
2023-04-10T17:52:53.149Z,20.87
2023-04-10T17:55:21.078Z,20.82
2023-04-10T17:57:48.964Z,20.78
2023-04-10T18:00:20.856Z,20.75
2023-04-10T18:02:55.208Z,20.71
2023-04-10T18:05:24.694Z,20.60
2023-04-10T18:07:51.444Z,20.59
2023-04-10T18:10:18.306Z,20.56
2023-04-10T18:12:45.157Z,20.54
2023-04-10T18:15:14.153Z,20.50
2023-04-10T18:17:41.269Z,20.48
2023-04-10T18:20:08.646Z,20.44
2023-04-10T18:22:35.402Z,20.42
2023-04-10T18:25:02.255Z,20.40
2023-04-10T18:27:34.676Z,20.38
2023-04-10T18:30:02.038Z,20.35
2023-04-10T18:32:28.956Z,20.34
2023-04-10T18:34:55.809Z,20.32
2023-04-10T18:37:22.592Z,20.29
2023-04-10T18:39:49.371Z,20.27
2023-04-10T18:42:16.288Z,20.25
2023-04-10T18:44:43.069Z,20.24
2023-04-10T18:47:11.053Z,20.22
2023-04-10T18:49:38.002Z,20.19
2023-04-10T18:52:04.834Z,20.19
2023-04-10T18:54:31.627Z,20.17
2023-04-10T18:56:58.463Z,20.16
2023-04-10T18:59:26.780Z,20.15
2023-04-10T19:01:53.947Z,20.12
2023-04-10T19:04:20.890Z,20.12
2023-04-10T19:06:47.904Z,20.10
2023-04-10T19:09:14.909Z,20.08
2023-04-10T19:11:42.616Z,20.07
2023-04-10T19:14:09.409Z,20.05
2023-04-10T19:16:36.762Z,20.04
2023-04-10T19:19:03.532Z,20.03
2023-04-10T19:21:31.537Z,20.02
2023-04-10T19:23:58.385Z,20.01
2023-04-10T19:26:25.492Z,20.00
2023-04-10T19:28:52.269Z,19.97
2023-04-10T19:31:19.531Z,19.97
2023-04-10T19:33:46.421Z,19.96
2023-04-10T19:36:15.450Z,19.94
2023-04-10T19:38:44.468Z,19.92
2023-04-10T19:41:15.660Z,19.91
2023-04-10T19:43:43.088Z,19.90
2023-04-10T19:46:17.906Z,19.88
2023-04-10T19:48:45.159Z,19.87
2023-04-10T19:51:12.012Z,19.86
2023-04-10T19:53:38.958Z,19.84
2023-04-10T19:56:06.465Z,19.84
2023-04-10T19:58:40.644Z,19.81
2023-04-10T20:01:09.270Z,19.79
2023-04-10T20:03:37.041Z,19.76
2023-04-10T20:06:07.496Z,19.76
2023-04-10T20:08:35.678Z,19.74
2023-04-10T20:11:06.032Z,19.74
2023-04-10T20:13:36.008Z,19.71
2023-04-10T20:16:03.062Z,19.70
2023-04-10T20:18:32.015Z,19.67
2023-04-10T20:20:58.843Z,19.64
2023-04-10T20:23:25.593Z,19.63
2023-04-10T20:25:52.343Z,19.61
2023-04-10T20:28:20.068Z,19.59
2023-04-10T20:30:46.901Z,19.59
2023-04-10T20:33:13.679Z,19.57
2023-04-10T20:35:40.516Z,19.56
2023-04-10T20:38:07.396Z,19.55
2023-04-10T20:40:34.770Z,19.54
2023-04-10T20:43:01.596Z,19.54
2023-04-10T20:45:28.347Z,19.53
2023-04-10T20:47:59.360Z,19.51
2023-04-10T20:50:26.208Z,19.51
2023-04-10T20:52:52.984Z,19.48
2023-04-10T20:55:19.800Z,19.49
2023-04-10T20:57:46.550Z,19.46
2023-04-10T21:00:13.840Z,19.45
2023-04-10T21:02:40.735Z,19.45
2023-04-10T21:05:08.132Z,19.44
2023-04-10T21:07:34.967Z,19.42
2023-04-10T21:10:01.743Z,19.41
2023-04-10T21:12:28.556Z,19.40
2023-04-10T21:14:55.339Z,19.38
2023-04-10T21:17:22.616Z,19.37
2023-04-10T21:19:49.432Z,19.34
2023-04-10T21:22:16.190Z,19.33
2023-04-10T21:24:42.939Z,19.31
2023-04-10T21:27:09.764Z,19.32
2023-04-10T21:29:36.541Z,19.30
2023-04-10T21:32:03.359Z,19.29
2023-04-10T21:34:30.496Z,19.28
2023-04-10T21:36:57.343Z,19.26
2023-04-10T21:39:24.117Z,19.25
2023-04-10T21:41:50.869Z,19.24
2023-04-10T21:44:18.172Z,19.23
2023-04-10T21:46:44.996Z,19.22
2023-04-10T21:49:11.759Z,19.21
2023-04-10T21:51:40.639Z,19.21
2023-04-10T21:54:07.454Z,19.22
2023-04-10T21:56:35.528Z,19.20
2023-04-10T21:59:02.403Z,19.19
2023-04-10T22:01:29.217Z,19.19
2023-04-10T22:03:57.002Z,19.19
2023-04-10T22:06:23.952Z,19.18
2023-04-10T22:08:50.728Z,19.19
2023-04-10T22:11:17.599Z,19.19
2023-04-10T22:13:44.370Z,19.19
2023-04-10T22:16:11.194Z,19.19
2023-04-10T22:18:38.053Z,19.17
2023-04-10T22:21:04.977Z,19.13
2023-04-10T22:23:32.106Z,19.07
2023-04-10T22:26:02.035Z,18.99
2023-04-10T22:28:29.054Z,18.89
2023-04-10T22:30:55.838Z,18.79
2023-04-10T22:33:22.740Z,18.66
2023-04-10T22:35:53.590Z,18.56
2023-04-10T22:38:20.419Z,18.46
2023-04-10T22:40:47.168Z,18.34
2023-04-10T22:43:13.925Z,18.27
2023-04-10T22:45:42.180Z,18.22
2023-04-10T22:48:09.078Z,18.19
2023-04-10T22:50:36.389Z,18.17
2023-04-10T22:53:03.161Z,18.14
2023-04-10T22:55:30.014Z,18.10
2023-04-10T22:57:56.831Z,18.08
2023-04-10T23:00:24.609Z,18.04
2023-04-10T23:02:51.504Z,18.01
2023-04-10T23:05:18.314Z,17.95
2023-04-10T23:07:45.096Z,17.88
2023-04-10T23:10:11.880Z,17.82
2023-04-10T23:12:38.661Z,17.75
2023-04-10T23:15:07.823Z,17.68
2023-04-10T23:17:34.645Z,17.59
2023-04-10T23:20:01.411Z,17.54
2023-04-10T23:22:29.498Z,17.46
2023-04-10T23:24:57.263Z,17.39
2023-04-10T23:27:24.465Z,17.35
2023-04-10T23:29:58.725Z,17.27
2023-04-10T23:32:25.502Z,17.19
2023-04-10T23:34:52.250Z,17.14
2023-04-10T23:37:19.156Z,17.09
2023-04-10T23:39:46.007Z,17.06
2023-04-10T23:42:12.769Z,17.01
2023-04-10T23:44:40.417Z,16.96
2023-04-10T23:47:07.262Z,16.93
2023-04-10T23:49:35.195Z,16.92
2023-04-10T23:52:01.988Z,16.89
2023-04-10T23:54:29.683Z,16.87
2023-04-10T23:56:56.426Z,16.86
2023-04-10T23:59:23.229Z,16.83
